createdAt,value
2023-01-29T00:02:31.196Z,4.64
2023-01-29T00:05:35.939Z,4.66
2023-01-29T00:08:42.407Z,4.65
2023-01-29T00:11:48.716Z,4.67
2023-01-29T00:14:53.265Z,4.65
2023-01-29T00:17:59.552Z,4.60
2023-01-29T00:21:04.224Z,4.60
2023-01-29T00:24:11.290Z,4.56
2023-01-29T00:27:17.647Z,4.56
2023-01-29T00:30:22.891Z,4.55
2023-01-29T00:33:30.480Z,4.53
2023-01-29T00:36:36.614Z,4.53
2023-01-29T00:39:48.186Z,4.52
2023-01-29T00:43:08.888Z,4.53
2023-01-29T00:46:14.996Z,4.53
2023-01-29T00:49:21.307Z,4.52
2023-01-29T00:52:25.953Z,4.49
2023-01-29T00:55:32.217Z,4.45
2023-01-29T00:58:38.392Z,4.46
2023-01-29T01:02:02.110Z,4.44
2023-01-29T01:05:14.239Z,4.42
2023-01-29T01:08:37.720Z,4.43
2023-01-29T01:11:43.827Z,4.43
2023-01-29T01:14:51.079Z,4.43
2023-01-29T01:17:58.682Z,4.40
2023-01-29T01:21:05.271Z,4.40
2023-01-29T01:24:12.077Z,4.39
2023-01-29T01:27:19.695Z,4.35
2023-01-29T01:30:26.939Z,4.29
2023-01-29T01:33:33.152Z,4.23
2023-01-29T01:36:39.210Z,4.22
2023-01-29T01:39:49.296Z,4.23
2023-01-29T01:42:57.441Z,4.20
2023-01-29T01:46:03.752Z,4.18
2023-01-29T01:49:11.579Z,4.15
2023-01-29T01:52:18.827Z,4.12
2023-01-29T01:55:29.409Z,4.12
2023-01-29T01:58:39.346Z,4.08
2023-01-29T02:01:51.401Z,4.06
2023-01-29T02:05:15.679Z,4.06
2023-01-29T02:08:44.776Z,4.11
2023-01-29T02:11:51.713Z,4.17
2023-01-29T02:14:58.235Z,4.23
2023-01-29T02:18:04.603Z,4.28
2023-01-29T02:21:25.157Z,4.33
2023-01-29T02:25:13.375Z,4.36
2023-01-29T02:28:49.092Z,4.41
2023-01-29T02:31:58.250Z,4.45
2023-01-29T02:35:28.775Z,4.44
2023-01-29T02:38:43.149Z,4.48
2023-01-29T02:41:57.785Z,4.49
2023-01-29T02:45:12.557Z,4.51
2023-01-29T02:48:21.809Z,4.53
2023-01-29T02:51:34.913Z,4.55
2023-01-29T02:54:46.815Z,4.55
2023-01-29T02:57:57.505Z,4.55
2023-01-29T03:01:09.225Z,4.58
2023-01-29T03:04:20.990Z,4.59
2023-01-29T03:07:44.633Z,4.61
2023-01-29T03:10:55.948Z,4.62
2023-01-29T03:14:07.840Z,4.61
2023-01-29T03:17:14.135Z,4.60
2023-01-29T03:20:21.136Z,4.56
2023-01-29T03:23:48.136Z,4.53
2023-01-29T03:27:13.139Z,4.53
2023-01-29T03:30:39.191Z,4.48
2023-01-29T03:33:50.701Z,4.42
2023-01-29T03:37:00.311Z,4.39
2023-01-29T03:40:08.343Z,4.36
2023-01-29T03:43:22.059Z,4.36
2023-01-29T03:46:33.600Z,4.33
2023-01-29T03:49:55.064Z,4.31
2023-01-29T03:53:08.463Z,4.29
2023-01-29T03:56:26.442Z,4.28
2023-01-29T03:59:41.102Z,4.28
2023-01-29T04:02:52.290Z,4.31
2023-01-29T04:06:05.615Z,4.32
2023-01-29T04:09:20.405Z,4.31
2023-01-29T04:12:30.955Z,4.32
2023-01-29T04:15:41.521Z,4.35
2023-01-29T04:18:49.827Z,4.37
2023-01-29T04:22:05.223Z,4.36
2023-01-29T04:25:16.662Z,4.33
2023-01-29T04:28:28.956Z,4.30
2023-01-29T04:31:41.090Z,4.31
2023-01-29T04:34:58.625Z,4.32
2023-01-29T04:38:12.660Z,4.33
2023-01-29T04:41:26.028Z,4.30
2023-01-29T04:44:40.244Z,4.28
2023-01-29T04:47:55.346Z,4.28
2023-01-29T04:51:11.815Z,4.29
2023-01-29T04:54:23.983Z,4.24
2023-01-29T04:57:46.398Z,4.22
2023-01-29T05:00:56.002Z,4.16
2023-01-29T05:04:06.814Z,4.17
2023-01-29T05:07:16.414Z,4.18
2023-01-29T05:10:24.369Z,4.21
2023-01-29T05:13:33.196Z,4.23
2023-01-29T05:16:44.081Z,4.15
2023-01-29T05:19:50.648Z,3.54
2023-01-29T05:22:57.031Z,2.90
2023-01-29T05:26:03.316Z,2.41
2023-01-29T05:29:07.765Z,2.15
2023-01-29T05:32:13.963Z,2.44
2023-01-29T05:35:20.742Z,2.78
2023-01-29T05:38:27.298Z,3.01
2023-01-29T05:41:33.607Z,3.14
2023-01-29T05:44:38.134Z,3.23
2023-01-29T05:47:44.391Z,3.30
2023-01-29T05:50:48.897Z,3.39
2023-01-29T05:53:55.085Z,3.39
2023-01-29T05:57:01.294Z,3.41
2023-01-29T06:00:09.412Z,3.42
2023-01-29T06:03:16.827Z,3.45
2023-01-29T06:06:23.023Z,3.49
2023-01-29T06:09:29.268Z,3.54
2023-01-29T06:12:33.758Z,3.55
2023-01-29T06:15:42.338Z,3.55
2023-01-29T06:18:48.503Z,3.55
2023-01-29T06:21:54.596Z,3.56
2023-01-29T06:25:00.868Z,3.52
2023-01-29T06:28:07.695Z,3.29
2023-01-29T06:31:38.496Z,2.62
2023-01-29T06:34:40.704Z,2.00
2023-01-29T06:37:46.973Z,1.68
2023-01-29T06:40:51.515Z,1.86
2023-01-29T06:43:57.699Z,2.07
2023-01-29T06:47:03.915Z,2.25
2023-01-29T06:50:12.764Z,2.34
2023-01-29T06:53:19.328Z,2.46
2023-01-29T06:56:25.632Z,2.61
2023-01-29T06:59:30.121Z,2.72
2023-01-29T07:02:36.372Z,2.79
2023-01-29T07:05:42.648Z,2.91
2023-01-29T07:08:47.277Z,2.98
2023-01-29T07:11:53.492Z,2.99
2023-01-29T07:14:59.733Z,2.82
2023-01-29T07:18:11.971Z,2.19
2023-01-29T07:21:18.359Z,1.62
2023-01-29T07:24:22.883Z,1.22
2023-01-29T07:27:29.188Z,0.91
2023-01-29T07:30:33.886Z,0.66
2023-01-29T07:33:40.076Z,0.47
2023-01-29T07:36:46.363Z,0.73
2023-01-29T07:39:50.940Z,1.11
2023-01-29T07:43:02.677Z,1.40
2023-01-29T07:46:09.295Z,1.63
2023-01-29T07:49:15.607Z,1.82
2023-01-29T07:52:22.134Z,1.98
2023-01-29T07:55:29.010Z,2.11
2023-01-29T07:58:36.727Z,2.24
2023-01-29T08:01:43.170Z,2.34
2023-01-29T08:04:49.574Z,2.16
2023-01-29T08:08:06.177Z,1.61
2023-01-29T08:11:13.092Z,1.15
2023-01-29T08:14:17.701Z,0.82
2023-01-29T08:17:23.981Z,0.59
2023-01-29T08:20:28.562Z,0.40
2023-01-29T08:23:34.871Z,0.21
2023-01-29T08:26:39.375Z,0.33
2023-01-29T08:29:45.709Z,0.82
2023-01-29T08:32:50.279Z,1.27
2023-01-29T08:35:56.531Z,1.58
2023-01-29T08:39:02.914Z,1.84
2023-01-29T08:42:09.144Z,2.07
2023-01-29T08:45:15.964Z,1.92
2023-01-29T08:48:22.321Z,1.43
2023-01-29T08:51:28.867Z,1.08
2023-01-29T08:54:35.106Z,0.84
2023-01-29T08:57:41.860Z,0.64
2023-01-29T09:00:48.508Z,0.61
2023-01-29T09:03:54.708Z,1.06
2023-01-29T09:07:00.934Z,1.54
2023-01-29T09:10:08.251Z,1.79
2023-01-29T09:13:14.392Z,2.00
2023-01-29T09:16:20.688Z,2.22
2023-01-29T09:19:25.208Z,2.31
2023-01-29T09:22:31.453Z,1.89
2023-01-29T09:25:38.077Z,1.48
2023-01-29T09:28:44.399Z,1.22
2023-01-29T09:31:50.821Z,1.05
2023-01-29T09:34:57.129Z,0.92
2023-01-29T09:38:03.407Z,0.81
2023-01-29T09:41:16.415Z,0.84
2023-01-29T09:44:32.608Z,1.41
2023-01-29T09:47:39.496Z,1.98
2023-01-29T09:50:49.238Z,2.38
2023-01-29T09:54:06.325Z,2.68
2023-01-29T09:57:17.033Z,2.67
2023-01-29T10:00:27.875Z,2.20
2023-01-29T10:03:51.699Z,1.85
2023-01-29T10:07:16.317Z,1.65
2023-01-29T10:10:44.044Z,1.51
2023-01-29T10:13:58.107Z,1.45
2023-01-29T10:17:20.481Z,1.40
2023-01-29T10:20:50.904Z,1.34
2023-01-29T10:24:08.609Z,1.44
2023-01-29T10:27:20.017Z,2.02
2023-01-29T10:30:32.579Z,2.52
2023-01-29T10:33:49.592Z,2.81
2023-01-29T10:37:16.070Z,2.49
2023-01-29T10:40:25.197Z,2.16
2023-01-29T10:43:39.134Z,2.01
2023-01-29T10:47:02.056Z,1.93
2023-01-29T10:50:26.686Z,1.83
2023-01-29T10:53:49.957Z,1.71
2023-01-29T10:57:09.343Z,1.58
2023-01-29T11:00:22.040Z,1.49
2023-01-29T11:03:30.866Z,1.42
2023-01-29T11:06:38.493Z,1.39
2023-01-29T11:09:52.028Z,1.37
2023-01-29T11:12:59.409Z,1.33
2023-01-29T11:16:09.527Z,1.25
2023-01-29T11:19:15.739Z,1.19
2023-01-29T11:22:23.716Z,1.27
2023-01-29T11:25:32.781Z,1.84
2023-01-29T11:28:44.389Z,2.39
2023-01-29T11:31:50.767Z,2.70
2023-01-29T11:35:06.014Z,2.40
2023-01-29T11:38:23.326Z,2.10
2023-01-29T11:41:29.636Z,1.90
2023-01-29T11:44:36.682Z,1.76
2023-01-29T11:47:43.048Z,1.67
2023-01-29T11:50:52.224Z,1.60
2023-01-29T11:54:00.355Z,1.54
2023-01-29T11:57:19.384Z,1.48
2023-01-29T12:00:29.000Z,1.42
2023-01-29T12:03:41.376Z,1.38
2023-01-29T12:06:52.096Z,1.36
2023-01-29T12:10:00.707Z,1.35
2023-01-29T12:13:26.907Z,1.30
2023-01-29T12:16:39.757Z,1.44
2023-01-29T12:19:52.402Z,2.04
2023-01-29T12:23:06.857Z,2.54
2023-01-29T12:26:16.109Z,2.79
2023-01-29T12:29:33.326Z,2.46
2023-01-29T12:32:46.629Z,2.17
2023-01-29T12:35:59.957Z,2.03
2023-01-29T12:39:06.645Z,1.96
2023-01-29T12:42:18.320Z,1.89
2023-01-29T12:45:29.198Z,1.82
2023-01-29T12:48:39.761Z,1.73
2023-01-29T12:51:54.547Z,1.62
2023-01-29T12:55:05.434Z,1.54
2023-01-29T12:58:17.811Z,1.51
2023-01-29T13:01:32.992Z,1.46
2023-01-29T13:04:42.558Z,1.42
2023-01-29T13:07:53.469Z,1.37
2023-01-29T13:11:03.562Z,1.33
2023-01-29T13:14:20.832Z,1.29
2023-01-29T13:17:32.434Z,1.30
2023-01-29T13:20:40.124Z,1.31
2023-01-29T13:23:51.214Z,1.30
2023-01-29T13:26:57.682Z,1.23
2023-01-29T13:30:04.986Z,1.11
2023-01-29T13:33:22.400Z,1.15
2023-01-29T13:36:31.524Z,1.69
2023-01-29T13:39:44.722Z,2.21
2023-01-29T13:42:54.375Z,2.60
2023-01-29T13:46:07.793Z,2.78
2023-01-29T13:49:29.856Z,2.44
2023-01-29T13:52:43.083Z,2.10
2023-01-29T13:55:49.684Z,1.88
2023-01-29T13:58:58.202Z,1.71
2023-01-29T14:02:26.221Z,1.57
2023-01-29T14:05:43.678Z,1.46
2023-01-29T14:08:49.884Z,1.35
2023-01-29T14:11:56.384Z,1.24
2023-01-29T14:15:23.348Z,1.11
2023-01-29T14:18:30.871Z,0.98
2023-01-29T14:21:39.106Z,0.88
2023-01-29T14:24:45.783Z,0.81
2023-01-29T14:27:53.866Z,0.76
2023-01-29T14:31:00.757Z,0.70
2023-01-29T14:34:15.161Z,0.62
2023-01-29T14:37:29.597Z,0.67
2023-01-29T14:40:37.418Z,1.27
2023-01-29T14:43:43.850Z,1.80
2023-01-29T14:46:50.586Z,2.15
2023-01-29T14:49:58.039Z,2.03
2023-01-29T14:53:08.837Z,1.61
2023-01-29T14:56:19.705Z,1.31
2023-01-29T14:59:29.367Z,1.08
2023-01-29T15:02:42.467Z,0.92
2023-01-29T15:05:49.952Z,0.78
2023-01-29T15:09:04.011Z,0.66
2023-01-29T15:12:19.563Z,0.57
2023-01-29T15:15:34.653Z,0.47
2023-01-29T15:18:43.205Z,0.37
2023-01-29T15:22:11.025Z,0.41
2023-01-29T15:25:20.551Z,0.94
2023-01-29T15:28:28.415Z,1.40
2023-01-29T15:31:36.359Z,1.77
2023-01-29T15:34:45.598Z,2.08
2023-01-29T15:38:04.426Z,2.23
2023-01-29T15:41:21.480Z,1.80
2023-01-29T15:44:28.074Z,1.39
2023-01-29T15:47:35.702Z,1.08
2023-01-29T15:50:44.753Z,0.84
2023-01-29T15:53:54.620Z,0.66
2023-01-29T15:57:01.829Z,0.51
2023-01-29T16:00:21.466Z,0.37
2023-01-29T16:03:29.699Z,0.20
2023-01-29T16:06:41.264Z,0.08
2023-01-29T16:09:48.188Z,0.07
2023-01-29T16:12:55.352Z,0.57
2023-01-29T16:16:04.373Z,1.06
2023-01-29T16:19:24.409Z,1.43
2023-01-29T16:22:33.888Z,1.73
2023-01-29T16:25:41.737Z,1.96
2023-01-29T16:28:49.090Z,2.17
2023-01-29T16:32:01.970Z,2.23
2023-01-29T16:35:15.218Z,1.75
2023-01-29T16:38:29.963Z,1.28
2023-01-29T16:41:38.337Z,0.94
2023-01-29T16:44:51.134Z,0.68
2023-01-29T16:48:24.227Z,0.47
2023-01-29T16:51:32.691Z,0.25
2023-01-29T16:54:45.378Z,0.11
2023-01-29T16:57:55.657Z,0.10
2023-01-29T17:01:04.804Z,0.58
2023-01-29T17:04:15.123Z,1.04
2023-01-29T17:07:22.440Z,1.36
2023-01-29T17:10:30.553Z,1.59
2023-01-29T17:13:40.169Z,1.81
2023-01-29T17:16:55.263Z,2.02
2023-01-29T17:20:11.803Z,2.20
2023-01-29T17:23:18.393Z,2.21
2023-01-29T17:26:25.873Z,1.70
2023-01-29T17:29:33.388Z,1.22
2023-01-29T17:32:43.595Z,0.86
2023-01-29T17:35:52.139Z,0.56
2023-01-29T17:38:58.322Z,0.33
2023-01-29T17:42:04.634Z,0.11
2023-01-29T17:45:10.849Z,0.05
2023-01-29T17:48:20.532Z,0.47
2023-01-29T17:51:26.810Z,0.97
2023-01-29T17:54:31.298Z,1.31
2023-01-29T17:57:37.676Z,1.55
2023-01-29T18:00:43.982Z,1.76
2023-01-29T18:03:48.475Z,1.95
2023-01-29T18:06:55.562Z,2.09
2023-01-29T18:10:01.861Z,2.25
2023-01-29T18:13:06.356Z,2.25
2023-01-29T18:16:12.700Z,1.71
2023-01-29T18:19:23.138Z,1.22
2023-01-29T18:22:29.368Z,0.87
2023-01-29T18:25:35.735Z,0.60
2023-01-29T18:28:43.811Z,0.38
2023-01-29T18:31:51.774Z,0.30
2023-01-29T18:34:58.376Z,0.75
2023-01-29T18:38:04.714Z,1.21
2023-01-29T18:41:10.708Z,1.54
2023-01-29T18:44:17.049Z,1.77
2023-01-29T18:47:21.592Z,1.99
2023-01-29T18:50:28.183Z,2.15
2023-01-29T18:53:34.673Z,2.33
2023-01-29T18:57:07.746Z,2.48
2023-01-29T19:00:09.809Z,2.49
2023-01-29T19:03:16.137Z,1.95
2023-01-29T19:06:20.632Z,1.47
2023-01-29T19:09:27.036Z,1.12
2023-01-29T19:12:33.875Z,0.83
2023-01-29T19:15:42.405Z,0.61
2023-01-29T19:18:48.764Z,0.41
2023-01-29T19:21:54.556Z,0.34
2023-01-29T19:25:01.001Z,0.77
2023-01-29T19:28:08.077Z,1.25
2023-01-29T19:31:14.658Z,1.60
2023-01-29T19:34:20.966Z,1.87
2023-01-29T19:37:25.958Z,2.07
2023-01-29T19:40:32.369Z,2.23
2023-01-29T19:43:42.092Z,2.42
2023-01-29T19:46:48.339Z,2.59
2023-01-29T19:49:52.892Z,2.68
2023-01-29T19:52:59.762Z,2.78
2023-01-29T19:56:07.657Z,2.89
2023-01-29T19:59:15.404Z,2.73
2023-01-29T20:02:21.745Z,2.08
2023-01-29T20:05:27.255Z,1.58
2023-01-29T20:08:33.912Z,1.23
2023-01-29T20:11:40.259Z,0.95
2023-01-29T20:14:48.976Z,0.71
2023-01-29T20:17:55.334Z,0.50
2023-01-29T20:20:59.819Z,0.34
2023-01-29T20:24:07.191Z,0.20
2023-01-29T20:27:13.735Z,0.18
2023-01-29T20:30:21.125Z,0.63
2023-01-29T20:33:27.709Z,1.07
2023-01-29T20:36:34.019Z,1.38
2023-01-29T20:39:38.650Z,1.64
2023-01-29T20:42:45.126Z,1.82
2023-01-29T20:45:51.380Z,2.01
2023-01-29T20:48:56.860Z,2.19
2023-01-29T20:52:03.104Z,2.31
2023-01-29T20:55:11.583Z,2.44
2023-01-29T20:58:17.949Z,2.58
2023-01-29T21:01:22.723Z,2.69
2023-01-29T21:04:31.438Z,2.74
2023-01-29T21:07:37.663Z,2.83
2023-01-29T21:10:45.162Z,2.91
2023-01-29T21:13:53.415Z,2.93
2023-01-29T21:16:59.776Z,2.45
2023-01-29T21:20:05.409Z,1.89
2023-01-29T21:23:11.829Z,1.49
2023-01-29T21:26:16.353Z,1.19
2023-01-29T21:29:22.616Z,0.96
2023-01-29T21:32:28.202Z,0.88
2023-01-29T21:35:37.892Z,1.30
2023-01-29T21:38:44.181Z,1.77
2023-01-29T21:42:06.885Z,2.08
2023-01-29T21:45:14.228Z,2.31
2023-01-29T21:48:20.473Z,2.51
2023-01-29T21:51:27.142Z,2.68
2023-01-29T21:54:35.832Z,2.81
2023-01-29T21:57:43.123Z,2.96
2023-01-29T22:00:49.876Z,3.08
2023-01-29T22:03:56.056Z,3.19
2023-01-29T22:07:02.467Z,3.28
2023-01-29T22:10:10.065Z,3.37
2023-01-29T22:13:16.355Z,3.43
2023-01-29T22:16:22.588Z,3.48
2023-01-29T22:19:29.258Z,3.34
2023-01-29T22:22:35.565Z,2.70
2023-01-29T22:25:40.087Z,2.11
2023-01-29T22:28:46.407Z,1.67
2023-01-29T22:31:50.940Z,1.34
2023-01-29T22:34:57.594Z,1.04
2023-01-29T22:38:03.886Z,0.90
2023-01-29T22:41:09.416Z,1.29
2023-01-29T22:44:15.847Z,1.67
2023-01-29T22:47:22.072Z,1.94
2023-01-29T22:50:28.328Z,2.14
2023-01-29T22:53:32.840Z,2.31
2023-01-29T22:56:39.092Z,2.41
2023-01-29T22:59:43.551Z,2.54
2023-01-29T23:02:51.000Z,2.63
2023-01-29T23:05:57.241Z,2.75
2023-01-29T23:09:03.498Z,2.83
2023-01-29T23:12:08.982Z,2.90
2023-01-29T23:15:15.825Z,2.92
2023-01-29T23:18:22.093Z,2.99
2023-01-29T23:21:27.401Z,3.03
2023-01-29T23:24:33.829Z,3.02
2023-01-29T23:27:40.085Z,3.05
2023-01-29T23:30:45.451Z,3.04
2023-01-29T23:33:51.990Z,2.98
2023-01-29T23:36:56.544Z,2.89
2023-01-29T23:40:02.939Z,2.79
2023-01-29T23:43:09.362Z,2.76
2023-01-29T23:46:13.968Z,2.71
2023-01-29T23:49:20.254Z,2.68
2023-01-29T23:52:24.864Z,2.72
2023-01-29T23:55:30.940Z,2.72
2023-01-29T23:58:37.151Z,2.77
